Urb La Serrania, Puerto Rico
Current Conditions -  °F | °C
As of 11:56 AM on Monday 22 Dec 2014 (Local Time) from TJSJ Reporting Station
Scattered Clouds Scattered Clouds  
Wind Chill: 28°   Ceiling: Unl
Heat Index: 31°   Visibility: 10mi
Dew Point: 22°   Wind: 14mph
Humidity: 69%   Direction: 40°NE
Pressure: 30.04"   Gusts: NA
Location:  18.2361°N, 66.0369°W
Report Text: TJSJ 221556Z 04012KT 10SM SCT045 SCT065 28/22 A3004 RMK AO2 SLP173 T02830222
Loading
Personal Weather Stations






























Interactive Weather Map New forecast layout! Learn more

10-Day Weather Forecast

Advertisements
Track Severe Weather on mobile